Flight Track Log - Related Links

Times and Time Zones

All times are in EDT time to prevent confusion due to time zone crossing. See the SWA1903 flight status page for this flight to view local times or setup timezone preferences in your user account.

Time Position Orientation Groundspeed Altitude Reporting Facility
EDT Latitude Longitude Course Direction KTS MPH feet Rate Location/Type
Fri 06:04:29 AM 36.8867 -76.2125 218° Southwest 149 171 700  Level Washington Center
Fri 06:05:36 AM 36.8386 -76.2589 218° Southwest 247 284 3,700 2,672 Climbing Washington Center
Fri 06:06:28 AM 36.8508 -76.3056 288° West 225 259 6,000 3,403 Climbing Washington Center
Fri 06:06:43 AM 36.8672 -76.3369 303° West 260 299 7,500 4,525 Climbing Washington Center
Fri 06:07:29 AM 36.8942 -76.3761 311° West 246 283 10,600 3,786 Climbing Washington Center
Fri 06:08:26 AM 36.9436 -76.4600 306° West 267 307 14,000 2,750 Climbing Washington Center
Fri 06:09:29 AM 36.9972 -76.5514 306° West 302 348 16,100 992 Climbing Washington Center
Fri 06:10:27 AM 37.0486 -76.6406 306° West 320 368 16,000 -50 Descending Washington Center
Fri 06:11:29 AM 37.1042 -76.7325 307° West 325 374 16,000 50 Level Washington Center
Fri 06:12:27 AM 37.1575 -76.8244 306° West 325 374 16,100  Climbing Washington Center
Fri 06:13:29 AM 37.2086 -76.9139 306° West 330 380 16,000 -49 Descending Washington Center
Fri 06:14:29 AM 37.2703 -77.0011 312° West 337 388 16,000  Level Washington Center
Fri 06:15:27 AM 37.3703 -77.0133 354° North 305 351 16,000  Level Washington Center
Fri 06:16:29 AM 37.4639 -77.0231 355° North 327 376 16,000 -500 Level Washington Center
Fri 06:17:27 AM 37.5578 -77.0353 354° North 332 382 15,000 -1,008 Descending Washington Center
Fri 06:18:28 AM 37.6492 -77.0450 355° North 332 382 14,000 -500 Descending Washington Center
Fri 06:19:27 AM 37.7367 -77.0569 354° North 332 382 14,000  Level Washington Center
Fri 06:20:28 AM 37.8242 -77.0667 355° North 327 376 14,000  Level Washington Center
Fri 06:21:29 AM 37.9139 -77.0789 354° North 321 369 14,000  Level Washington Center
Fri 06:22:27 AM 38.0033 -77.0911 354° North 321 369 14,000  Level Washington Center
Fri 06:23:28 AM 38.0928 -77.1008 355° North 321 369 14,000  Level Washington Center
Fri 06:24:26 AM 38.1803 -77.1133 354° North 321 369 14,000  Level Washington Center
Fri 06:25:28 AM 38.2678 -77.1231 355° North 316 364 14,000  Level Washington Center
Fri 06:26:29 AM 38.3447 -77.1378 351° North 311 358 14,000  Level Washington Center
Fri 06:27:27 AM 38.4244 -77.0892 26° Northeast 303 349 14,000 -706 Level Washington Center
Fri 06:28:28 AM 38.4922 -77.0083 43° Northeast 303 349 12,600 -984 Descending Washington Center
Fri 06:29:29 AM 38.5578 -76.9272 44° Northeast 313 360 12,000 -950 Descending Washington Center
Fri 06:30:28 AM 38.6211 -76.8486 44° Northeast 313 360 10,700 -1,282 Descending Washington Center
Fri 06:31:26 AM 38.6803 -76.7725 45° Northeast 306 352 9,500 -958 Descending Washington Center
Fri 06:32:27 AM 38.7292 -76.6906 53° Northeast 293 337 8,800 -1,083 Descending Washington Center
Fri 06:33:50 AM 38.7833 -76.5667 61° Northeast 271 312 6,900 -1,358 Descending Potomac TRACON
Fri 06:34:44 AM 38.8333 -76.5167 38° Northeast 248 285 5,700 -1,167 Descending Potomac TRACON
Fri 06:35:38 AM 38.9000 -76.5333 349° North 229 264 4,800 -737 Descending Potomac TRACON
Fri 06:36:38 AM 38.9500 -76.5500 345° North 210 242 4,300 -550 Descending Potomac TRACON
Fri 06:37:38 AM 39.0000 -76.5667 345° North 186 214 3,700 -789 Descending Potomac TRACON
Fri 06:38:32 AM 39.0500 -76.5667 360° North 172 198 2,800 -944 Descending Potomac TRACON
Fri 06:39:26 AM 39.0833 -76.5833 339° North 164 189 2,000 -842 Descending Potomac TRACON
Fri 06:40:26 AM 39.1167 -76.6167 322° Northwest 137 158 1,200 -684 Descending Potomac TRACON
Fri 06:41:20 AM 39.1500 -76.6500 322° Northwest 123 142 700 -556 Descending Potomac TRACON
Fri 06:43:00 AM 39.1667 -76.6667 339° North  Level FlightAware Approximate
Fri 06:50:00 AM 39.1754 -76.6683 339° North  Level Estimated
Fri 06:51:00 AM 39.1754 -76.6683 339° North  Level Estimated
Fri 06:52:00 AM 39.1754 -76.6683 339° North  Level Estimated
Fri 06:53:00 AM 39.1754 -76.6683 339° North  Level Estimated

Login

Don't have an account? Register now (free) for customized features, flight alerts, and more!